createdAt,value
2019-06-01T00:00:11.856Z,101154.79
2019-06-01T00:02:45.275Z,101158.38
2019-06-01T00:05:12.141Z,101159.20
2019-06-01T00:07:40.792Z,101154.41
2019-06-01T00:10:08.464Z,101154.27
2019-06-01T00:12:35.815Z,101151.83
2019-06-01T00:15:03.862Z,101148.25
2019-06-01T00:17:31.145Z,101149.72
2019-06-01T00:19:59.486Z,101149.91
2019-06-01T00:22:26.766Z,101153.22
2019-06-01T00:24:54.043Z,101153.20
2019-06-01T00:27:21.202Z,101154.66
2019-06-01T00:29:49.934Z,101155.48
2019-06-01T00:32:21.699Z,101161.75
2019-06-01T00:34:49.911Z,101159.17
2019-06-01T00:37:17.152Z,101157.88
2019-06-01T00:39:45.640Z,101160.26
2019-06-01T00:42:15.850Z,101158.87
2019-06-01T00:44:44.222Z,101158.23
2019-06-01T00:47:12.327Z,101153.82
2019-06-01T00:49:39.696Z,101156.16
2019-06-01T00:52:06.844Z,101155.09
2019-06-01T00:54:34.317Z,101158.17
2019-06-01T00:57:01.677Z,101157.88
2019-06-01T00:59:29.853Z,101153.47
2019-06-01T01:01:57.122Z,101154.95
2019-06-01T01:04:24.319Z,101159.89
2019-06-01T01:06:52.868Z,101159.19
2019-06-01T01:09:32.027Z,101153.75
2019-06-01T01:11:59.379Z,101156.23
2019-06-01T01:14:26.746Z,101156.59
2019-06-01T01:16:55.669Z,101160.70
2019-06-01T01:19:23.285Z,101162.63
2019-06-01T01:21:56.290Z,101155.97
2019-06-01T01:24:23.697Z,101162.31
2019-06-01T01:26:50.951Z,101151.13
2019-06-01T01:29:18.227Z,101155.42
2019-06-01T01:31:55.278Z,101159.14
2019-06-01T01:34:22.614Z,101159.45
2019-06-01T01:36:49.877Z,101154.46
2019-06-01T01:39:17.180Z,101153.77
2019-06-01T01:41:44.546Z,101157.08
2019-06-01T01:44:13.727Z,101161.34
2019-06-01T01:46:41.210Z,101155.89
2019-06-01T01:49:08.684Z,101160.17
2019-06-01T01:51:36.127Z,101154.45
2019-06-01T01:54:15.444Z,101159.17
2019-06-01T01:56:42.596Z,101151.64
2019-06-01T01:59:09.859Z,101150.01
2019-06-01T02:01:37.045Z,101147.58
2019-06-01T02:04:04.495Z,101144.47
2019-06-01T02:06:33.678Z,101140.88
2019-06-01T02:09:01.867Z,101141.02
2019-06-01T02:11:29.353Z,101138.55
2019-06-01T02:13:57.786Z,101140.25
2019-06-01T02:16:36.544Z,101133.20
2019-06-01T02:19:04.046Z,101137.70
2019-06-01T02:21:31.381Z,101140.06
2019-06-01T02:23:59.022Z,101138.20
2019-06-01T02:26:26.437Z,101138.95
2019-06-01T02:28:59.465Z,101134.84
2019-06-01T02:31:40.558Z,101134.55
2019-06-01T02:33:56.393Z,101136.19
2019-06-01T02:36:24.217Z,101129.27
2019-06-01T02:39:00.895Z,101139.23
2019-06-01T02:41:28.320Z,101136.44
2019-06-01T02:43:57.334Z,101137.52
2019-06-01T02:46:24.912Z,101141.31
2019-06-01T02:48:59.822Z,101131.33
2019-06-01T02:51:28.146Z,101128.10
2019-06-01T02:53:55.630Z,101128.00
2019-06-01T02:56:23.107Z,101136.69
2019-06-01T02:58:50.272Z,101142.80
2019-06-01T03:01:35.360Z,101142.34
2019-06-01T03:04:08.056Z,101134.19
2019-06-01T03:06:40.235Z,101135.70
2019-06-01T03:09:09.202Z,101142.34
2019-06-01T03:11:41.313Z,101152.36
2019-06-01T03:14:10.871Z,101140.92
2019-06-01T03:16:41.341Z,101142.48
2019-06-01T03:19:09.222Z,101142.84
2019-06-01T03:21:42.541Z,101140.34
2019-06-01T03:24:13.032Z,101147.07
2019-06-01T03:26:44.131Z,101147.90
2019-06-01T03:29:18.393Z,101154.70
2019-06-01T03:31:48.804Z,101143.38
2019-06-01T03:34:16.179Z,101142.48
2019-06-01T03:36:43.651Z,101146.89
2019-06-01T03:39:12.890Z,101147.69
2019-06-01T03:41:46.360Z,101138.64
2019-06-01T03:44:14.384Z,101151.77
2019-06-01T03:46:41.727Z,101150.98
2019-06-01T03:49:09.777Z,101144.75
2019-06-01T03:51:37.260Z,101149.47
2019-06-01T03:54:10.200Z,101147.62
2019-06-01T03:56:37.970Z,101148.23
2019-06-01T03:59:05.239Z,101148.45
2019-06-01T04:01:34.516Z,101144.54
2019-06-01T04:04:07.145Z,101153.41
2019-06-01T04:06:36.064Z,101155.77
2019-06-01T04:09:07.617Z,101152.80
2019-06-01T04:11:35.002Z,101160.58
2019-06-01T04:14:03.436Z,101153.30
2019-06-01T04:16:32.059Z,101155.57
2019-06-01T04:18:59.210Z,101157.48
2019-06-01T04:21:26.483Z,101156.41
2019-06-01T04:23:53.748Z,101153.69
2019-06-01T04:26:20.899Z,101156.83
2019-06-01T04:28:51.926Z,101152.13
2019-06-01T04:31:19.320Z,101149.28
2019-06-01T04:33:46.578Z,101150.18
2019-06-01T04:36:13.808Z,101143.08
2019-06-01T04:38:40.942Z,101151.37
2019-06-01T04:41:09.770Z,101155.66
2019-06-01T04:43:37.181Z,101152.20
2019-06-01T04:46:04.536Z,101154.16
2019-06-01T04:48:31.904Z,101160.33
2019-06-01T04:51:13.477Z,101154.91
2019-06-01T04:53:40.909Z,101157.56
2019-06-01T04:56:09.033Z,101172.95
2019-06-01T04:58:36.420Z,101165.28
2019-06-01T05:01:04.749Z,101165.72
2019-06-01T05:03:34.607Z,101161.08
2019-06-01T05:06:02.110Z,101163.81
2019-06-01T05:08:29.277Z,101159.66
2019-06-01T05:10:56.662Z,101161.38
2019-06-01T05:13:34.269Z,101170.97
2019-06-01T05:16:01.643Z,101168.19
2019-06-01T05:18:28.777Z,101165.96
2019-06-01T05:20:55.939Z,101172.78
2019-06-01T05:23:23.213Z,101178.05
2019-06-01T05:25:53.269Z,101172.80
2019-06-01T05:28:19.659Z,101171.45
2019-06-01T05:30:47.011Z,101176.63
2019-06-01T05:33:29.316Z,101172.91
2019-06-01T05:35:43.648Z,101174.38
2019-06-01T05:38:12.230Z,101172.86
2019-06-01T05:40:39.726Z,101170.83
2019-06-01T05:43:10.683Z,101174.15
2019-06-01T05:45:36.257Z,101169.59
2019-06-01T05:48:03.987Z,101175.55
2019-06-01T05:50:35.590Z,101166.54
2019-06-01T05:53:03.080Z,101175.58
2019-06-01T05:55:30.433Z,101172.13
2019-06-01T05:57:57.746Z,101171.91
2019-06-01T06:00:41.092Z,101171.74
2019-06-01T06:03:08.683Z,101169.02
2019-06-01T06:05:36.038Z,101172.24
2019-06-01T06:08:03.650Z,101174.47
2019-06-01T06:10:42.580Z,101174.29
2019-06-01T06:13:11.007Z,101177.88
2019-06-01T06:15:38.347Z,101175.27
2019-06-01T06:18:05.726Z,101176.41
2019-06-01T06:20:33.159Z,101179.52
2019-06-01T06:23:04.482Z,101179.16
2019-06-01T06:25:33.432Z,101173.39
2019-06-01T06:28:01.079Z,101179.11
2019-06-01T06:30:28.383Z,101179.58
2019-06-01T06:33:06.807Z,101177.14
2019-06-01T06:35:34.203Z,101180.12
2019-06-01T06:38:01.540Z,101171.33
2019-06-01T06:40:28.909Z,101170.19
2019-06-01T06:43:18.644Z,101160.60
2019-06-01T06:45:34.552Z,101159.02
2019-06-01T06:48:02.022Z,101159.45
2019-06-01T06:50:29.170Z,101159.14
2019-06-01T06:52:56.356Z,101155.69
2019-06-01T06:55:29.990Z,101158.98
2019-06-01T06:57:57.511Z,101164.61
2019-06-01T07:00:24.967Z,101169.30
2019-06-01T07:02:52.228Z,101169.08
2019-06-01T07:05:32.943Z,101174.00
2019-06-01T07:08:00.440Z,101168.00
2019-06-01T07:10:28.323Z,101172.28
2019-06-01T07:12:55.713Z,101169.24
2019-06-01T07:15:33.626Z,101171.63
2019-06-01T07:18:01.041Z,101166.61
2019-06-01T07:20:28.190Z,101171.63
2019-06-01T07:22:55.581Z,101169.77
2019-06-01T07:25:24.542Z,101163.69
2019-06-01T07:27:52.172Z,101165.24
2019-06-01T07:30:20.054Z,101166.06
2019-06-01T07:32:47.708Z,101160.48
2019-06-01T07:35:15.068Z,101162.45
2019-06-01T07:37:54.548Z,101159.46
2019-06-01T07:40:22.927Z,101163.91
2019-06-01T07:42:50.327Z,101155.27
2019-06-01T07:45:17.814Z,101157.43
2019-06-01T07:47:45.288Z,101156.28
2019-06-01T07:50:15.043Z,101154.03
2019-06-01T07:52:42.515Z,101150.66
2019-06-01T07:55:09.874Z,101152.89
2019-06-01T07:57:37.034Z,101147.65
2019-06-01T08:00:06.084Z,101152.64
2019-06-01T08:02:34.860Z,101149.11
2019-06-01T08:05:02.340Z,101154.95
2019-06-01T08:07:29.690Z,101152.47
2019-06-01T08:09:56.856Z,101150.12
2019-06-01T08:12:34.620Z,101152.23
2019-06-01T08:15:02.894Z,101149.56
2019-06-01T08:17:30.174Z,101151.05
2019-06-01T08:19:57.481Z,101151.15
2019-06-01T08:22:25.904Z,101149.61
2019-06-01T08:24:55.845Z,101149.50
2019-06-01T08:27:24.282Z,101144.02
2019-06-01T08:29:51.881Z,101141.22
2019-06-01T08:32:19.263Z,101138.35
2019-06-01T08:35:08.031Z,101131.71
2019-06-01T08:37:27.588Z,101131.23
2019-06-01T08:39:54.752Z,101126.73
2019-06-01T08:42:25.265Z,101125.84
2019-06-01T08:45:05.521Z,101119.91
2019-06-01T08:47:34.030Z,101119.59
2019-06-01T08:50:03.641Z,101116.50
2019-06-01T08:52:32.188Z,101118.13
2019-06-01T08:55:01.660Z,101119.66
2019-06-01T08:57:30.340Z,101121.46
2019-06-01T08:59:58.202Z,101121.06
2019-06-01T09:02:26.513Z,101109.42
2019-06-01T09:04:53.977Z,101112.35
2019-06-01T09:07:21.251Z,101107.60
2019-06-01T09:09:59.413Z,101101.08
2019-06-01T09:12:27.254Z,101107.91
2019-06-01T09:14:54.843Z,101107.78
2019-06-01T09:17:22.205Z,101104.13
2019-06-01T09:19:49.582Z,101106.80
2019-06-01T09:22:18.729Z,101107.30
2019-06-01T09:24:46.090Z,101102.84
2019-06-01T09:27:13.371Z,101108.69
2019-06-01T09:29:44.572Z,101106.22
2019-06-01T09:32:15.880Z,101103.30
2019-06-01T09:34:43.351Z,101100.56
2019-06-01T09:37:10.823Z,101106.20
2019-06-01T09:39:42.401Z,101098.24
2019-06-01T09:42:09.577Z,101100.09
2019-06-01T09:44:37.360Z,101098.80
2019-06-01T09:47:04.753Z,101090.91
2019-06-01T09:49:33.903Z,101092.84
2019-06-01T09:52:04.116Z,101083.26
2019-06-01T09:54:33.063Z,101092.76
2019-06-01T09:57:00.867Z,101077.89
2019-06-01T09:59:28.371Z,101079.16
2019-06-01T10:02:10.672Z,101077.86
2019-06-01T10:04:39.160Z,101075.75
2019-06-01T10:07:06.311Z,101070.01
2019-06-01T10:09:33.690Z,101072.32
2019-06-01T10:12:00.956Z,101067.98
2019-06-01T10:14:28.577Z,101060.76
2019-06-01T10:16:55.668Z,101058.95
2019-06-01T10:19:23.048Z,101059.34
2019-06-01T10:21:50.336Z,101054.66
2019-06-01T10:24:31.073Z,101052.33
2019-06-01T10:26:58.388Z,101048.53
2019-06-01T10:29:25.661Z,101038.97
2019-06-01T10:31:53.045Z,101044.17
2019-06-01T10:34:20.416Z,101041.97
2019-06-01T10:36:48.017Z,101034.43
2019-06-01T10:39:19.425Z,101034.94
2019-06-01T10:41:44.465Z,101036.05
2019-06-01T10:44:11.882Z,101031.30
2019-06-01T10:46:52.855Z,101037.06
2019-06-01T10:49:20.113Z,101036.40
2019-06-01T10:51:50.067Z,101029.87
2019-06-01T10:54:18.057Z,101026.45
2019-06-01T10:56:45.208Z,101020.84
2019-06-01T10:59:19.017Z,101025.22
2019-06-01T11:01:46.344Z,101018.15
2019-06-01T11:04:13.512Z,101015.72
2019-06-01T11:06:47.728Z,101007.71
2019-06-01T11:09:16.408Z,101008.19
2019-06-01T11:11:43.680Z,101013.99
2019-06-01T11:14:11.050Z,101016.66
2019-06-01T11:16:39.657Z,101012.84
2019-06-01T11:19:06.948Z,100999.97
2019-06-01T11:21:35.445Z,100998.42
2019-06-01T11:24:14.284Z,100997.14
2019-06-01T11:26:42.023Z,100996.47
2019-06-01T11:29:09.307Z,100997.34
2019-06-01T11:31:38.242Z,100996.37
2019-06-01T11:34:05.764Z,100988.81
2019-06-01T11:36:36.182Z,100985.54
2019-06-01T11:39:05.907Z,100989.37
2019-06-01T11:41:34.385Z,100981.89
2019-06-01T11:44:01.932Z,100974.59
2019-06-01T11:46:36.737Z,100971.78
2019-06-01T11:49:04.264Z,100973.83
2019-06-01T11:51:31.669Z,100968.32
2019-06-01T11:53:58.828Z,100967.08
2019-06-01T11:56:26.091Z,100964.70
2019-06-01T11:59:00.959Z,100966.98
2019-06-01T12:01:28.335Z,100958.92
2019-06-01T12:03:55.674Z,100961.94
2019-06-01T12:06:23.063Z,100959.27
2019-06-01T12:08:50.354Z,100953.41
2019-06-01T12:11:21.161Z,100952.56
2019-06-01T12:13:48.617Z,100942.28
2019-06-01T12:16:16.096Z,100938.75
2019-06-01T12:18:44.734Z,100941.11
2019-06-01T12:21:12.246Z,100936.62
2019-06-01T12:23:41.401Z,100934.48
2019-06-01T12:26:08.900Z,100923.50
2019-06-01T12:28:37.522Z,100916.27
2019-06-01T12:31:04.825Z,100916.86
2019-06-01T12:33:43.953Z,100920.71
2019-06-01T12:36:11.446Z,100920.66
2019-06-01T12:38:51.355Z,100906.54
2019-06-01T12:41:19.401Z,100902.28
2019-06-01T12:44:10.794Z,100907.84
2019-06-01T12:46:40.039Z,100907.75
2019-06-01T12:49:07.840Z,100901.35
2019-06-01T12:51:35.298Z,100895.61
2019-06-01T12:54:03.777Z,100900.56
2019-06-01T12:56:40.863Z,100885.05
2019-06-01T12:59:08.170Z,100887.16
2019-06-01T13:01:35.537Z,100890.14
2019-06-01T13:04:03.449Z,100882.69
2019-06-01T13:06:31.150Z,100883.23
2019-06-01T13:08:59.962Z,100879.73
2019-06-01T13:11:27.763Z,100875.38
2019-06-01T13:13:57.448Z,100875.36
2019-06-01T13:16:25.327Z,100871.53
2019-06-01T13:19:01.854Z,100884.25
2019-06-01T13:21:29.238Z,100872.86
2019-06-01T13:23:57.570Z,100872.31
2019-06-01T13:26:25.100Z,100873.53
2019-06-01T13:28:52.921Z,100866.66
2019-06-01T13:31:23.862Z,100876.03
2019-06-01T13:33:52.382Z,100869.88
2019-06-01T13:36:21.282Z,100861.91
2019-06-01T13:38:48.837Z,100857.96
2019-06-01T13:41:23.736Z,100855.70
2019-06-01T13:43:51.428Z,100847.95
2019-06-01T13:46:18.751Z,100849.58
2019-06-01T13:48:47.239Z,100852.78
2019-06-01T13:51:14.894Z,100850.28
2019-06-01T13:53:46.275Z,100842.35
2019-06-01T13:56:13.699Z,100836.66
2019-06-01T13:58:41.066Z,100835.48
2019-06-01T14:01:08.331Z,100840.07
2019-06-01T14:03:45.218Z,100834.42
2019-06-01T14:06:12.474Z,100827.63
2019-06-01T14:08:39.949Z,100826.70
2019-06-01T14:11:07.104Z,100818.28
2019-06-01T14:13:34.269Z,100818.84
2019-06-01T14:16:02.151Z,100815.24
2019-06-01T14:18:29.432Z,100813.86
2019-06-01T14:20:56.615Z,100815.75
2019-06-01T14:23:23.893Z,100809.56
2019-06-01T14:26:03.455Z,100806.78
2019-06-01T14:28:30.629Z,100811.77
2019-06-01T14:30:57.899Z,100815.63
2019-06-01T14:33:25.362Z,100809.73
2019-06-01T14:35:52.863Z,100804.94
2019-06-01T14:38:20.421Z,100807.27
2019-06-01T14:40:48.877Z,100802.45
2019-06-01T14:43:16.249Z,100802.09
2019-06-01T14:45:44.052Z,100805.44
2019-06-01T14:48:11.468Z,100807.34
2019-06-01T14:50:38.940Z,100806.37
2019-06-01T14:53:06.297Z,100794.37
2019-06-01T14:55:33.663Z,100794.55
2019-06-01T14:58:06.089Z,100799.52
2019-06-01T15:00:33.329Z,100792.41
2019-06-01T15:03:01.310Z,100796.94
2019-06-01T15:05:28.665Z,100786.52
2019-06-01T15:07:57.142Z,100792.20
2019-06-01T15:10:28.882Z,100784.50
2019-06-01T15:13:00.766Z,100788.61
2019-06-01T15:15:25.765Z,100785.31
2019-06-01T15:17:53.462Z,100778.92
2019-06-01T15:20:24.033Z,100770.77
2019-06-01T15:22:52.172Z,100774.62
2019-06-01T15:25:19.689Z,100767.98
2019-06-01T15:27:46.915Z,100771.14
2019-06-01T15:30:15.282Z,100762.51
2019-06-01T15:32:43.379Z,100762.23
2019-06-01T15:35:11.047Z,100761.47
2019-06-01T15:37:38.430Z,100752.61
2019-06-01T15:40:06.604Z,100759.23
2019-06-01T15:42:47.594Z,100763.30
2019-06-01T15:45:17.610Z,100760.01
2019-06-01T15:47:44.760Z,100757.19
2019-06-01T15:50:12.740Z,100761.28
2019-06-01T15:52:45.476Z,100761.63
2019-06-01T15:55:13.946Z,100750.62
2019-06-01T15:57:41.205Z,100750.62
2019-06-01T16:00:12.218Z,100745.75
2019-06-01T16:02:39.784Z,100746.36
2019-06-01T16:05:17.349Z,100736.69
2019-06-01T16:07:44.731Z,100737.84
2019-06-01T16:10:12.688Z,100731.47
2019-06-01T16:12:40.075Z,100735.70
2019-06-01T16:15:08.666Z,100730.49
2019-06-01T16:17:36.509Z,100735.92
2019-06-01T16:20:06.166Z,100729.08
2019-06-01T16:22:33.725Z,100737.50
2019-06-01T16:25:02.576Z,100730.92
2019-06-01T16:27:30.079Z,100725.06
2019-06-01T16:29:57.248Z,100725.72
2019-06-01T16:32:33.782Z,100725.61
2019-06-01T16:35:03.093Z,100722.89
2019-06-01T16:37:30.401Z,100730.47
2019-06-01T16:40:02.776Z,100727.66
2019-06-01T16:42:27.344Z,100727.11
2019-06-01T16:44:55.348Z,100718.15
2019-06-01T16:47:22.863Z,100723.25
2019-06-01T16:49:50.546Z,100720.28
2019-06-01T16:52:18.193Z,100716.20
2019-06-01T16:54:46.934Z,100715.73
2019-06-01T16:57:14.199Z,100714.36
2019-06-01T16:59:42.808Z,100720.84
2019-06-01T17:02:10.669Z,100720.61
2019-06-01T17:04:38.148Z,100717.23
2019-06-01T17:07:07.373Z,100715.45
2019-06-01T17:09:34.622Z,100718.75
2019-06-01T17:12:03.137Z,100713.38
2019-06-01T17:14:31.874Z,100722.58
2019-06-01T17:17:03.373Z,100716.20
2019-06-01T17:19:31.003Z,100716.34
2019-06-01T17:21:59.409Z,100717.38
2019-06-01T17:24:27.110Z,100715.01
2019-06-01T17:26:57.798Z,100717.01
2019-06-01T17:29:25.560Z,100714.27
2019-06-01T17:32:12.641Z,100717.02
2019-06-01T17:34:25.077Z,100712.78
2019-06-01T17:36:52.639Z,100715.08
2019-06-01T17:39:20.734Z,100711.04
2019-06-01T17:41:48.090Z,100716.83
2019-06-01T17:44:15.766Z,100709.58
2019-06-01T17:46:53.050Z,100718.29
2019-06-01T17:49:12.517Z,100710.01
2019-06-01T17:51:40.483Z,100708.73
2019-06-01T17:54:18.032Z,100708.30
2019-06-01T17:56:45.299Z,100708.13
2019-06-01T17:59:13.136Z,100710.59
2019-06-01T18:01:42.541Z,100706.02
2019-06-01T18:04:10.123Z,100703.95
2019-06-01T18:06:37.903Z,100712.14
2019-06-01T18:09:08.111Z,100710.73
2019-06-01T18:11:35.767Z,100710.53
2019-06-01T18:14:06.249Z,100710.58
2019-06-01T18:16:33.918Z,100708.22
2019-06-01T18:19:02.145Z,100702.94
2019-06-01T18:21:33.414Z,100700.02
2019-06-01T18:24:04.296Z,100701.17
2019-06-01T18:26:37.405Z,100698.84
2019-06-01T18:29:06.578Z,100704.02
2019-06-01T18:31:35.152Z,100703.66
2019-06-01T18:34:03.229Z,100704.24
2019-06-01T18:36:30.897Z,100700.48
2019-06-01T18:38:58.272Z,100703.05
2019-06-01T18:41:26.837Z,100705.92
2019-06-01T18:43:54.938Z,100696.77
2019-06-01T18:46:22.781Z,100699.94
2019-06-01T18:48:50.877Z,100701.45
2019-06-01T18:51:18.520Z,100700.70
2019-06-01T18:53:45.977Z,100707.34
2019-06-01T18:56:14.345Z,100700.07
2019-06-01T18:58:41.995Z,100701.70
2019-06-01T19:01:10.687Z,100704.14
2019-06-01T19:03:39.229Z,100698.78
2019-06-01T19:06:07.295Z,100704.91
2019-06-01T19:08:34.627Z,100704.27
2019-06-01T19:11:02.405Z,100700.67
2019-06-01T19:13:30.751Z,100701.98
2019-06-01T19:15:58.428Z,100700.62
2019-06-01T19:18:25.614Z,100703.73
2019-06-01T19:20:52.978Z,100702.38
2019-06-01T19:23:22.654Z,100704.39
2019-06-01T19:25:49.334Z,100706.66
2019-06-01T19:28:17.482Z,100703.58
2019-06-01T19:30:46.053Z,100701.70
2019-06-01T19:33:16.845Z,100703.89
2019-06-01T19:35:42.952Z,100711.25
2019-06-01T19:38:11.446Z,100712.23
2019-06-01T19:40:49.015Z,100710.22
2019-06-01T19:43:17.741Z,100715.77
2019-06-01T19:45:45.257Z,100718.09
2019-06-01T19:48:12.555Z,100723.99
2019-06-01T19:50:40.145Z,100722.10
2019-06-01T19:53:08.710Z,100715.75
2019-06-01T19:55:36.220Z,100723.89
2019-06-01T19:58:03.808Z,100724.38
2019-06-01T20:00:31.599Z,100721.77
2019-06-01T20:02:59.139Z,100726.64
2019-06-01T20:05:28.391Z,100725.14
2019-06-01T20:07:55.909Z,100727.54
2019-06-01T20:10:23.134Z,100735.27
2019-06-01T20:12:50.701Z,100729.95
2019-06-01T20:15:24.733Z,100727.49
2019-06-01T20:17:52.123Z,100732.16
2019-06-01T20:20:20.861Z,100729.84
2019-06-01T20:22:48.403Z,100731.16
2019-06-01T20:25:17.536Z,100733.30
2019-06-01T20:27:45.372Z,100727.50
2019-06-01T20:30:13.819Z,100728.16
2019-06-01T20:32:41.302Z,100727.42
2019-06-01T20:35:10.167Z,100729.72
2019-06-01T20:37:37.379Z,100727.45
2019-06-01T20:40:05.295Z,100721.85
2019-06-01T20:42:33.106Z,100723.77
2019-06-01T20:45:00.429Z,100724.91
2019-06-01T20:47:27.596Z,100735.65
2019-06-01T20:50:03.107Z,100732.41
2019-06-01T20:52:30.283Z,100732.97
2019-06-01T20:54:57.434Z,100726.62
2019-06-01T20:57:24.691Z,100727.20
2019-06-01T20:59:52.047Z,100730.05
2019-06-01T21:02:19.860Z,100724.07
2019-06-01T21:04:47.239Z,100728.92
2019-06-01T21:07:15.645Z,100728.31
2019-06-01T21:09:43.084Z,100731.10
2019-06-01T21:12:38.377Z,100732.73
2019-06-01T21:14:50.558Z,100736.41
2019-06-01T21:17:18.477Z,100743.17
2019-06-01T21:19:45.880Z,100741.73
2019-06-01T21:22:14.469Z,100739.10
2019-06-01T21:24:41.859Z,100742.31
2019-06-01T21:27:09.113Z,100742.50
2019-06-01T21:29:36.291Z,100738.89
2019-06-01T21:32:03.788Z,100741.63
2019-06-01T21:34:31.200Z,100741.59
2019-06-01T21:36:58.549Z,100737.79
2019-06-01T21:39:25.708Z,100739.66
2019-06-01T21:41:52.984Z,100747.59
2019-06-01T21:44:21.506Z,100742.08
2019-06-01T21:46:48.961Z,100739.81
2019-06-01T21:49:17.566Z,100742.25
2019-06-01T21:51:45.147Z,100743.91
2019-06-01T21:54:12.406Z,100741.50
2019-06-01T21:56:41.821Z,100733.80
2019-06-01T21:59:09.042Z,100739.47
2019-06-01T22:01:36.681Z,100738.55
2019-06-01T22:04:15.190Z,100733.92
2019-06-01T22:06:49.740Z,100736.50
2019-06-01T22:09:19.097Z,100737.63
2019-06-01T22:11:48.718Z,100738.96
2019-06-01T22:14:26.050Z,100744.44
2019-06-01T22:16:55.041Z,100747.00
2019-06-01T22:19:23.752Z,100744.98
2019-06-01T22:21:55.569Z,100743.85
2019-06-01T22:24:39.361Z,100743.30
2019-06-01T22:27:09.143Z,100741.73
2019-06-01T22:29:36.545Z,100742.96
2019-06-01T22:32:03.926Z,100736.20
2019-06-01T22:34:47.149Z,100734.25
2019-06-01T22:37:14.487Z,100732.95
2019-06-01T22:39:42.152Z,100727.87
2019-06-01T22:42:09.471Z,100732.78
2019-06-01T22:44:36.820Z,100730.91
2019-06-01T22:47:04.341Z,100733.73
2019-06-01T22:49:32.947Z,100725.80
2019-06-01T22:52:00.627Z,100727.30
2019-06-01T22:54:31.351Z,100725.31
2019-06-01T22:56:59.230Z,100721.87
2019-06-01T22:59:35.013Z,100722.05
2019-06-01T23:02:02.300Z,100721.37
2019-06-01T23:04:29.665Z,100723.62
2019-06-01T23:06:58.420Z,100720.89
2019-06-01T23:09:25.666Z,100723.77
2019-06-01T23:11:53.822Z,100721.34
2019-06-01T23:14:23.462Z,100717.48
2019-06-01T23:16:50.935Z,100718.90
2019-06-01T23:19:18.236Z,100711.64
2019-06-01T23:21:53.566Z,100714.77
2019-06-01T23:24:21.826Z,100708.49
2019-06-01T23:26:49.228Z,100715.69
2019-06-01T23:29:18.972Z,100712.35
2019-06-01T23:31:59.694Z,100717.02
2019-06-01T23:34:28.712Z,100708.72
2019-06-01T23:36:56.681Z,100712.33
2019-06-01T23:39:24.565Z,100706.55
2019-06-01T23:41:52.032Z,100710.70
2019-06-01T23:44:22.615Z,100703.81
2019-06-01T23:46:49.834Z,100701.13
2019-06-01T23:49:17.095Z,100703.39
2019-06-01T23:51:44.271Z,100701.48
2019-06-01T23:54:21.486Z,100703.72
2019-06-01T23:56:48.858Z,100699.78
2019-06-01T23:59:16.347Z,100699.27
